createdAt,value
2022-11-27T00:01:10.747Z,18.38
2022-11-27T00:03:38.977Z,18.17
2022-11-27T00:06:09.935Z,14.75
2022-11-27T00:08:37.742Z,15.60
2022-11-27T00:11:08.497Z,17.70
2022-11-27T00:13:36.703Z,19.02
2022-11-27T00:16:05.112Z,20.75
2022-11-27T00:18:33.335Z,16.13
2022-11-27T00:21:04.555Z,18.13
2022-11-27T00:23:34.954Z,31.42
2022-11-27T00:28:31.632Z,19.42
2022-11-27T00:31:00.245Z,20.38
2022-11-27T00:33:28.426Z,18.40
2022-11-27T00:35:57.428Z,16.92
2022-11-27T00:38:25.184Z,14.38
2022-11-27T00:40:54.429Z,20.77
2022-11-27T00:43:22.218Z,16.00
2022-11-27T00:45:50.480Z,17.85
2022-11-27T00:48:18.280Z,14.70
2022-11-27T00:50:46.122Z,15.50
2022-11-27T00:53:13.970Z,16.20
2022-11-27T00:55:41.740Z,15.25
2022-11-27T00:58:10.894Z,20.35
2022-11-27T01:00:38.782Z,17.58
2022-11-27T01:03:06.907Z,20.17
2022-11-27T01:05:36.982Z,17.40
2022-11-27T01:08:05.513Z,16.42
2022-11-27T01:10:33.392Z,17.50
2022-11-27T01:13:01.449Z,15.75
2022-11-27T01:15:30.877Z,15.57
2022-11-27T01:17:58.608Z,14.50
2022-11-27T01:20:26.494Z,12.27
2022-11-27T01:22:54.356Z,16.33
2022-11-27T01:25:26.742Z,14.13
2022-11-27T01:27:54.911Z,15.30
2022-11-27T01:30:22.769Z,17.13
2022-11-27T01:32:51.980Z,13.80
2022-11-27T01:35:20.068Z,17.08
2022-11-27T01:37:48.187Z,16.13
2022-11-27T01:40:15.984Z,18.08
2022-11-27T01:42:43.781Z,15.30
2022-11-27T01:45:16.221Z,17.27
2022-11-27T01:47:48.115Z,19.08
2022-11-27T01:50:24.912Z,14.77
2022-11-27T01:52:55.448Z,17.48
2022-11-27T01:55:29.344Z,17.90
2022-11-27T01:58:01.249Z,16.05
2022-11-27T02:00:29.084Z,16.92
2022-11-27T02:02:57.099Z,17.42
2022-11-27T02:05:28.620Z,15.38
2022-11-27T02:07:58.793Z,15.52
2022-11-27T02:10:37.224Z,16.75
2022-11-27T02:13:09.711Z,11.10
2022-11-27T02:15:44.659Z,11.80
2022-11-27T02:18:19.564Z,14.45
2022-11-27T02:20:55.179Z,13.10
2022-11-27T02:23:47.191Z,17.65
2022-11-27T02:26:48.472Z,13.27
2022-11-27T02:29:20.856Z,12.57
2022-11-27T02:31:54.565Z,15.32
2022-11-27T02:34:26.489Z,16.00
2022-11-27T02:37:02.691Z,15.60
2022-11-27T02:39:36.285Z,12.15
2022-11-27T02:42:10.531Z,13.85
2022-11-27T02:44:46.325Z,11.48
2022-11-27T02:47:16.072Z,15.05
2022-11-27T02:49:45.292Z,22.27
2022-11-27T02:52:14.570Z,17.60
2022-11-27T02:54:44.720Z,15.15
2022-11-27T02:57:15.140Z,22.27
2022-11-27T03:02:19.050Z,19.48
2022-11-27T03:04:51.136Z,18.60
2022-11-27T03:07:27.669Z,18.20
2022-11-27T03:10:04.215Z,15.38
2022-11-27T03:12:32.017Z,16.55
2022-11-27T03:15:01.411Z,17.50
2022-11-27T03:17:43.826Z,14.37
2022-11-27T03:20:16.783Z,20.17
2022-11-27T03:22:44.797Z,37.17
2022-11-27T03:25:12.753Z,34.55
2022-11-27T03:27:45.622Z,35.28
2022-11-27T03:30:15.702Z,76.93
2022-11-27T03:32:44.586Z,23.55
2022-11-27T03:35:15.913Z,27.35
2022-11-27T03:37:43.927Z,24.63
2022-11-27T03:40:12.811Z,35.45
2022-11-27T03:42:53.392Z,63.30
2022-11-27T03:45:32.030Z,83.80
2022-11-27T03:48:10.967Z,54.60
2022-11-27T03:50:51.437Z,81.72
2022-11-27T03:53:26.061Z,48.58
2022-11-27T03:56:04.220Z,72.95
2022-11-27T03:58:37.208Z,39.70
2022-11-27T04:03:38.580Z,43.65
2022-11-27T04:06:06.899Z,98.03
2022-11-27T04:08:34.735Z,52.53
2022-11-27T04:11:02.835Z,66.93
2022-11-27T04:13:30.667Z,88.35
2022-11-27T04:16:01.407Z,49.65
2022-11-27T04:18:30.871Z,118.75
2022-11-27T04:20:59.289Z,65.00
2022-11-27T04:23:27.180Z,100.93
2022-11-27T04:25:54.951Z,144.90
2022-11-27T04:28:23.029Z,126.47
2022-11-27T04:30:53.049Z,145.35
2022-11-27T04:33:20.881Z,100.55
2022-11-27T04:35:50.270Z,81.03
2022-11-27T04:38:18.283Z,94.83
2022-11-27T04:40:46.053Z,88.50
2022-11-27T04:43:13.938Z,59.08
2022-11-27T04:45:43.784Z,81.63
2022-11-27T04:48:11.901Z,113.75
2022-11-27T04:50:39.767Z,94.90
2022-11-27T04:53:08.928Z,76.47
2022-11-27T04:55:37.170Z,87.85
2022-11-27T04:58:04.987Z,113.43
2022-11-27T05:00:32.781Z,51.45
2022-11-27T05:03:00.726Z,91.75
2022-11-27T05:05:28.658Z,49.58
2022-11-27T05:07:58.197Z,97.78
2022-11-27T05:10:27.461Z,106.07
2022-11-27T05:12:55.238Z,69.07
2022-11-27T05:15:23.035Z,50.92
2022-11-27T05:17:50.812Z,40.40
2022-11-27T05:20:18.770Z,110.07
2022-11-27T05:22:48.324Z,45.78
2022-11-27T05:25:16.223Z,29.63
2022-11-27T05:27:45.421Z,47.47
2022-11-27T05:30:13.569Z,57.80
2022-11-27T05:32:41.370Z,28.27
2022-11-27T05:35:09.954Z,28.42
2022-11-27T05:37:37.772Z,42.53
2022-11-27T05:40:06.992Z,39.42
2022-11-27T05:42:34.820Z,42.90
2022-11-27T05:45:04.298Z,44.55
2022-11-27T05:47:32.155Z,130.95
2022-11-27T05:49:59.971Z,68.47
2022-11-27T05:52:27.725Z,98.70
2022-11-27T05:54:56.486Z,77.03
2022-11-27T05:57:24.273Z,94.40
2022-11-27T05:59:52.066Z,104.15
2022-11-27T06:02:26.364Z,58.03
2022-11-27T06:04:56.902Z,112.15
2022-11-27T06:07:25.162Z,55.20
2022-11-27T06:09:52.997Z,35.13
2022-11-27T06:12:20.833Z,38.53
2022-11-27T06:14:48.656Z,17.67
2022-11-27T06:17:16.698Z,17.73
2022-11-27T06:19:45.971Z,19.95
2022-11-27T06:22:13.835Z,21.50
2022-11-27T06:24:41.836Z,21.67
2022-11-27T06:27:09.934Z,14.57
2022-11-27T06:29:38.007Z,15.00
2022-11-27T06:32:06.887Z,16.13
2022-11-27T06:34:34.879Z,18.15
2022-11-27T06:37:04.772Z,22.35
2022-11-27T06:39:34.108Z,34.17
2022-11-27T06:42:02.015Z,35.40
2022-11-27T06:44:29.817Z,25.40
2022-11-27T06:46:57.656Z,25.95
2022-11-27T06:49:25.583Z,30.27
2022-11-27T06:51:53.394Z,28.38
2022-11-27T06:54:22.655Z,27.80
2022-11-27T06:56:51.318Z,22.23
2022-11-27T06:59:20.081Z,23.70
2022-11-27T07:01:50.245Z,23.23
2022-11-27T07:04:18.628Z,25.77
2022-11-27T07:06:46.451Z,26.58
2022-11-27T07:09:15.407Z,21.90
2022-11-27T07:11:44.589Z,21.48
2022-11-27T07:14:12.354Z,21.67
2022-11-27T07:16:40.562Z,18.73
2022-11-27T07:19:09.249Z,22.77
2022-11-27T07:21:38.213Z,26.65
2022-11-27T07:24:06.794Z,31.63
2022-11-27T07:26:34.849Z,34.67
2022-11-27T07:29:04.424Z,34.85
2022-11-27T07:31:32.367Z,28.73
2022-11-27T07:34:00.490Z,29.65
2022-11-27T07:36:30.599Z,20.25
2022-11-27T07:38:59.130Z,24.30
2022-11-27T07:41:33.473Z,38.97
2022-11-27T07:44:01.793Z,29.23
2022-11-27T07:46:31.586Z,23.55
2022-11-27T07:49:00.566Z,25.38
2022-11-27T07:51:29.929Z,30.55
2022-11-27T07:53:57.935Z,36.50
2022-11-27T07:56:25.860Z,32.50
2022-11-27T07:58:53.671Z,26.13
2022-11-27T08:01:22.406Z,24.13
2022-11-27T08:03:51.768Z,22.98
2022-11-27T08:06:21.537Z,21.90
2022-11-27T08:08:49.855Z,21.00
2022-11-27T08:11:20.765Z,26.25
2022-11-27T08:13:48.942Z,21.67
2022-11-27T08:16:17.514Z,22.58
2022-11-27T08:18:45.352Z,39.72
2022-11-27T08:21:14.999Z,22.52
2022-11-27T08:23:42.802Z,22.63
2022-11-27T08:26:12.015Z,20.63
2022-11-27T08:28:40.858Z,24.02
2022-11-27T08:31:11.483Z,20.20
2022-11-27T08:33:39.703Z,22.42
2022-11-27T08:36:11.487Z,18.98
2022-11-27T08:38:43.047Z,16.75
2022-11-27T08:41:11.031Z,15.30
2022-11-27T08:43:39.040Z,18.40
2022-11-27T08:46:08.012Z,19.02
2022-11-27T08:48:35.944Z,23.92
2022-11-27T08:51:07.292Z,28.05
2022-11-27T08:53:37.618Z,19.58
2022-11-27T08:56:15.257Z,18.17
2022-11-27T08:58:43.428Z,18.42
2022-11-27T09:01:13.240Z,16.65
2022-11-27T09:03:41.231Z,20.48
2022-11-27T09:06:10.425Z,17.55
2022-11-27T09:08:38.824Z,17.63
2022-11-27T09:11:07.055Z,18.67
2022-11-27T09:13:37.595Z,14.38
2022-11-27T09:16:06.451Z,15.27
2022-11-27T09:18:34.816Z,14.93
2022-11-27T09:21:05.123Z,13.10
2022-11-27T09:23:33.404Z,14.73
2022-11-27T09:26:01.890Z,14.55
2022-11-27T09:28:31.803Z,12.45
2022-11-27T09:31:04.032Z,16.23
2022-11-27T09:33:33.506Z,12.70
2022-11-27T09:36:06.769Z,15.67
2022-11-27T09:38:34.955Z,17.33
2022-11-27T09:41:15.424Z,17.75
2022-11-27T09:46:22.143Z,19.47
2022-11-27T09:48:52.864Z,18.48
2022-11-27T09:51:28.677Z,16.50
2022-11-27T09:54:01.746Z,19.00
2022-11-27T09:56:31.743Z,15.25
2022-11-27T09:59:01.586Z,15.80
2022-11-27T10:01:41.925Z,17.33
2022-11-27T10:04:14.987Z,13.90
2022-11-27T10:06:55.581Z,16.25
2022-11-27T10:09:30.332Z,14.35
2022-11-27T10:12:07.383Z,18.40
2022-11-27T10:14:48.272Z,13.13
2022-11-27T10:17:21.828Z,13.85
2022-11-27T10:19:55.833Z,11.32
2022-11-27T10:22:30.096Z,14.15
2022-11-27T10:25:08.391Z,14.05
2022-11-27T10:27:42.659Z,11.05
2022-11-27T10:30:17.805Z,12.68
2022-11-27T10:32:56.441Z,14.18
2022-11-27T10:35:26.202Z,15.25
2022-11-27T10:37:59.895Z,13.70
2022-11-27T10:40:37.313Z,15.20
2022-11-27T10:43:12.944Z,12.50
2022-11-27T10:45:46.913Z,11.07
2022-11-27T10:48:17.011Z,10.68
2022-11-27T10:50:45.907Z,15.23
2022-11-27T10:53:26.372Z,12.55
2022-11-27T10:56:06.199Z,11.40
2022-11-27T10:58:40.933Z,10.77
2022-11-27T11:01:10.802Z,12.85
2022-11-27T11:03:40.624Z,10.80
2022-11-27T11:06:21.901Z,11.30
2022-11-27T11:09:01.788Z,10.60
2022-11-27T11:11:29.658Z,13.15
2022-11-27T11:13:57.726Z,14.38
2022-11-27T11:16:34.872Z,12.43
2022-11-27T11:19:06.256Z,13.23
2022-11-27T11:21:39.030Z,11.70
2022-11-27T11:24:13.465Z,12.48
2022-11-27T11:26:45.638Z,12.95
2022-11-27T11:29:39.564Z,15.07
2022-11-27T11:32:11.485Z,11.77
2022-11-27T11:34:46.190Z,15.63
2022-11-27T11:37:23.857Z,13.73
2022-11-27T11:39:56.911Z,14.35
2022-11-27T11:42:26.950Z,12.93
2022-11-27T11:44:57.121Z,12.35
2022-11-27T11:47:26.633Z,14.02
2022-11-27T11:50:00.524Z,14.50
2022-11-27T11:52:50.570Z,12.30
2022-11-27T11:55:21.100Z,11.73
2022-11-27T12:01:04.853Z,12.60
2022-11-27T12:03:45.756Z,10.65
2022-11-27T12:06:41.761Z,11.38
2022-11-27T12:09:22.509Z,14.57
2022-11-27T12:11:57.199Z,11.88
2022-11-27T12:14:42.369Z,11.85
2022-11-27T12:17:25.697Z,13.15
2022-11-27T12:20:14.730Z,13.82
2022-11-27T12:23:07.575Z,9.52
2022-11-27T12:25:39.608Z,15.23
2022-11-27T12:28:25.091Z,11.70
2022-11-27T12:30:59.348Z,11.70
2022-11-27T12:33:41.665Z,12.07
2022-11-27T12:36:18.200Z,13.27
2022-11-27T12:39:00.961Z,11.27
2022-11-27T12:41:45.854Z,12.57
2022-11-27T12:44:22.334Z,11.18
2022-11-27T12:46:58.639Z,13.15
2022-11-27T12:49:30.860Z,14.68
2022-11-27T12:52:04.312Z,15.38
2022-11-27T12:54:41.461Z,13.43
2022-11-27T12:57:15.144Z,13.10
2022-11-27T12:59:47.389Z,9.68
2022-11-27T13:02:35.247Z,9.52
2022-11-27T13:05:07.174Z,11.50
2022-11-27T13:07:44.812Z,12.13
2022-11-27T13:10:23.516Z,11.45
2022-11-27T13:13:00.779Z,15.80
2022-11-27T13:15:34.023Z,13.07
2022-11-27T13:18:07.664Z,12.88
2022-11-27T13:20:39.671Z,10.77
2022-11-27T13:23:07.468Z,11.07
2022-11-27T13:25:43.670Z,11.25
2022-11-27T13:28:22.172Z,11.05
2022-11-27T13:30:52.544Z,13.07
2022-11-27T13:35:54.989Z,12.90
2022-11-27T13:38:25.332Z,13.45
2022-11-27T13:40:57.529Z,12.20
2022-11-27T13:43:29.806Z,11.18
2022-11-27T13:46:06.973Z,13.20
2022-11-27T13:48:37.931Z,16.25
2022-11-27T13:51:09.155Z,10.70
2022-11-27T13:53:39.453Z,13.00
2022-11-27T13:56:09.957Z,15.57
2022-11-27T13:58:39.729Z,14.27
2022-11-27T14:01:17.529Z,14.02
2022-11-27T14:03:46.263Z,16.00
2022-11-27T14:06:24.861Z,15.13
2022-11-27T14:08:59.525Z,16.13
2022-11-27T14:11:41.228Z,17.38
2022-11-27T14:14:16.852Z,15.60
2022-11-27T14:16:55.260Z,13.82
2022-11-27T14:19:33.861Z,15.13
2022-11-27T14:22:02.447Z,16.63
2022-11-27T14:24:41.164Z,15.95
2022-11-27T14:27:18.632Z,17.58
2022-11-27T14:29:47.181Z,15.70
2022-11-27T14:32:17.242Z,15.23
2022-11-27T14:34:45.641Z,16.73
2022-11-27T14:37:24.786Z,17.63
2022-11-27T14:39:52.888Z,15.88
2022-11-27T14:42:28.653Z,19.55
2022-11-27T14:45:06.351Z,19.08
2022-11-27T14:47:35.013Z,15.25
2022-11-27T14:50:03.960Z,13.48
2022-11-27T14:52:32.433Z,14.43
2022-11-27T14:55:01.900Z,19.65
2022-11-27T14:57:31.947Z,16.33
2022-11-27T15:00:06.309Z,13.25
2022-11-27T15:02:34.818Z,14.18
2022-11-27T15:05:05.165Z,16.08
2022-11-27T15:07:43.987Z,18.05
2022-11-27T15:10:30.079Z,17.50
2022-11-27T15:13:01.214Z,14.52
2022-11-27T15:15:32.964Z,18.30
2022-11-27T15:18:04.234Z,15.80
2022-11-27T15:20:39.318Z,18.83
2022-11-27T15:23:17.936Z,20.02
2022-11-27T15:25:47.621Z,18.73
2022-11-27T15:28:34.160Z,16.10
2022-11-27T15:31:02.543Z,14.65
2022-11-27T15:34:16.872Z,17.30
2022-11-27T15:36:46.291Z,14.95
2022-11-27T15:39:19.914Z,16.23
2022-11-27T15:41:53.006Z,14.43
2022-11-27T15:44:22.828Z,16.92
2022-11-27T15:46:51.582Z,15.25
2022-11-27T15:49:21.935Z,19.60
2022-11-27T15:54:17.341Z,19.10
2022-11-27T15:56:46.765Z,14.52
2022-11-27T15:59:14.938Z,19.27
2022-11-27T16:01:44.579Z,15.18
2022-11-27T16:04:12.349Z,19.15
2022-11-27T16:06:41.026Z,16.45
2022-11-27T16:09:09.117Z,17.63
2022-11-27T16:11:37.029Z,18.02
2022-11-27T16:14:07.706Z,17.58
2022-11-27T16:16:36.177Z,17.60
2022-11-27T16:19:12.043Z,19.35
2022-11-27T16:21:39.999Z,20.83
2022-11-27T16:24:09.728Z,21.33
2022-11-27T16:26:38.071Z,38.13
2022-11-27T16:29:06.141Z,96.47
2022-11-27T16:31:34.201Z,18.25
2022-11-27T16:34:05.729Z,17.13
2022-11-27T16:36:36.113Z,19.45
2022-11-27T16:39:04.840Z,17.50
2022-11-27T16:41:33.104Z,18.77
2022-11-27T16:44:00.995Z,17.27
2022-11-27T16:46:31.637Z,18.10
2022-11-27T16:49:01.541Z,17.45
2022-11-27T16:51:33.847Z,17.60
2022-11-27T16:54:04.784Z,18.70
2022-11-27T16:56:34.588Z,21.08
2022-11-27T16:59:08.699Z,18.70
2022-11-27T17:01:37.997Z,20.08
2022-11-27T17:04:08.834Z,20.52
2022-11-27T17:06:38.721Z,21.27
2022-11-27T17:09:09.029Z,20.00
2022-11-27T17:11:38.826Z,24.02
2022-11-27T17:16:41.141Z,33.88
2022-11-27T17:19:13.105Z,31.88
2022-11-27T17:21:41.518Z,26.63
2022-11-27T17:24:15.966Z,28.73
2022-11-27T17:26:46.465Z,23.85
2022-11-27T17:29:16.830Z,16.83
2022-11-27T17:34:14.198Z,23.75
2022-11-27T17:36:43.174Z,25.67
2022-11-27T17:39:14.991Z,26.70
2022-11-27T17:41:45.233Z,25.13
2022-11-27T17:44:13.763Z,19.40
2022-11-27T17:46:41.837Z,21.92
2022-11-27T17:49:09.689Z,19.25
2022-11-27T17:51:38.021Z,24.73
2022-11-27T17:54:06.249Z,20.30
2022-11-27T17:56:36.213Z,19.00
2022-11-27T17:59:04.303Z,16.95
2022-11-27T18:01:34.576Z,21.15
2022-11-27T18:04:04.174Z,24.23
2022-11-27T18:06:33.064Z,25.97
2022-11-27T18:09:01.472Z,20.77
2022-11-27T18:11:31.037Z,24.42
2022-11-27T18:14:02.479Z,22.70
2022-11-27T18:16:32.614Z,20.45
2022-11-27T18:19:03.093Z,22.75
2022-11-27T18:29:37.453Z,21.45
2022-11-27T18:32:05.997Z,17.80
2022-11-27T18:34:34.657Z,18.95
2022-11-27T18:37:03.018Z,20.63
2022-11-27T18:39:31.365Z,18.70
2022-11-27T18:41:59.441Z,20.98
2022-11-27T18:44:27.779Z,21.42
2022-11-27T18:46:57.118Z,20.40
2022-11-27T18:49:25.199Z,20.00
2022-11-27T18:51:54.862Z,22.40
2022-11-27T18:54:22.890Z,24.30
2022-11-27T18:56:51.259Z,21.13
2022-11-27T18:59:19.851Z,20.17
2022-11-27T19:01:47.810Z,17.67
2022-11-27T19:04:17.627Z,21.70
2022-11-27T19:06:47.406Z,21.98
2022-11-27T19:09:16.105Z,21.27
2022-11-27T19:11:45.125Z,20.02
2022-11-27T19:14:13.081Z,19.70
2022-11-27T19:16:46.041Z,19.38
2022-11-27T19:19:53.015Z,22.90
2022-11-27T19:22:08.634Z,21.75
2022-11-27T19:24:36.869Z,24.52
2022-11-27T19:27:05.041Z,21.50
2022-11-27T19:29:33.310Z,19.90
2022-11-27T19:32:01.362Z,21.00
2022-11-27T19:34:29.805Z,23.55
2022-11-27T19:36:59.059Z,18.17
2022-11-27T19:39:28.765Z,20.92
2022-11-27T19:41:57.804Z,20.23
2022-11-27T19:44:25.857Z,23.30
2022-11-27T19:46:53.705Z,22.65
2022-11-27T19:49:21.783Z,20.75
2022-11-27T19:51:49.850Z,19.15
2022-11-27T19:54:20.501Z,18.97
2022-11-27T19:56:49.934Z,20.70
2022-11-27T19:59:24.285Z,20.38
2022-11-27T20:01:54.517Z,18.65
2022-11-27T20:04:27.127Z,18.17
2022-11-27T20:06:55.321Z,21.05
2022-11-27T20:09:24.438Z,18.50
2022-11-27T20:11:53.698Z,18.92
2022-11-27T20:14:21.601Z,20.13
2022-11-27T20:16:49.539Z,19.13
2022-11-27T20:19:17.935Z,18.05
2022-11-27T20:21:47.524Z,22.80
2022-11-27T20:24:15.908Z,17.58
2022-11-27T20:26:45.384Z,17.85
2022-11-27T20:29:15.692Z,18.23
2022-11-27T20:31:44.957Z,20.30
2022-11-27T20:34:18.628Z,22.50
2022-11-27T20:36:46.655Z,21.40
2022-11-27T20:39:20.835Z,17.30
2022-11-27T20:41:50.691Z,18.38
2022-11-27T20:44:20.029Z,19.60
2022-11-27T20:46:47.867Z,17.75
2022-11-27T20:49:16.236Z,22.98
2022-11-27T20:51:46.573Z,19.65
2022-11-27T20:54:14.487Z,18.05
2022-11-27T20:56:45.593Z,19.58
2022-11-27T20:59:13.774Z,15.85
2022-11-27T21:01:43.105Z,18.33
2022-11-27T21:04:20.485Z,16.23
2022-11-27T21:06:48.803Z,17.48
2022-11-27T21:09:17.208Z,15.02
2022-11-27T21:11:46.161Z,18.17
2022-11-27T21:14:16.166Z,19.95
2022-11-27T21:19:19.997Z,20.77
2022-11-27T21:21:48.781Z,18.52
2022-11-27T21:24:16.664Z,19.58
2022-11-27T21:26:46.049Z,20.75
2022-11-27T21:29:16.137Z,16.67
2022-11-27T21:31:47.522Z,25.15
2022-11-27T21:34:16.981Z,19.80
2022-11-27T21:36:45.448Z,21.58
2022-11-27T21:39:19.916Z,19.13
2022-11-27T21:41:48.972Z,21.02
2022-11-27T21:44:17.960Z,17.85
2022-11-27T21:46:48.136Z,21.75
2022-11-27T21:49:18.340Z,21.05
2022-11-27T21:51:46.519Z,19.58
2022-11-27T21:54:15.933Z,21.73
2022-11-27T21:56:43.796Z,23.48
2022-11-27T21:59:13.478Z,22.13
2022-11-27T22:01:41.875Z,22.33
2022-11-27T22:04:11.086Z,23.23
2022-11-27T22:06:40.986Z,22.70
2022-11-27T22:09:14.998Z,22.58
2022-11-27T22:11:44.391Z,21.92
2022-11-27T22:14:13.066Z,22.77
2022-11-27T22:16:45.220Z,22.75
2022-11-27T22:19:16.103Z,22.30
2022-11-27T22:21:45.424Z,21.45
2022-11-27T22:24:18.983Z,20.27
2022-11-27T22:26:51.839Z,22.25
2022-11-27T22:29:19.703Z,22.13
2022-11-27T22:31:47.794Z,22.70
2022-11-27T22:34:17.983Z,20.77
2022-11-27T22:39:14.500Z,18.77
2022-11-27T22:41:43.353Z,24.88
2022-11-27T22:44:15.486Z,21.33
2022-11-27T22:46:44.064Z,22.77
2022-11-27T22:49:14.669Z,21.48
2022-11-27T22:51:44.102Z,19.27
2022-11-27T22:54:13.732Z,20.65
2022-11-27T22:56:41.821Z,24.25
2022-11-27T22:59:31.655Z,21.83
2022-11-27T23:01:59.979Z,22.55
2022-11-27T23:04:28.294Z,24.48
2022-11-27T23:06:57.455Z,22.45
2022-11-27T23:09:25.272Z,21.30
2022-11-27T23:11:53.065Z,24.75
2022-11-27T23:14:21.009Z,22.52
2022-11-27T23:16:48.829Z,24.60
2022-11-27T23:19:16.749Z,22.08
2022-11-27T23:21:44.675Z,21.33
2022-11-27T23:24:15.942Z,20.00
2022-11-27T23:26:45.748Z,26.33
2022-11-27T23:29:14.056Z,20.98
2022-11-27T23:31:41.875Z,22.33
2022-11-27T23:34:13.522Z,24.25
2022-11-27T23:36:41.503Z,22.00
2022-11-27T23:39:11.773Z,25.73
2022-11-27T23:41:41.576Z,26.15
2022-11-27T23:44:09.664Z,20.83
2022-11-27T23:46:37.503Z,24.42
2022-11-27T23:49:05.221Z,25.90
2022-11-27T23:51:34.004Z,20.80
2022-11-27T23:54:02.584Z,25.05
2022-11-27T23:56:32.398Z,27.50
2022-11-27T23:59:01.896Z,22.40
